TPC802 NZRC-NZQN
Flight info
| Callsign | TPC802 |
|---|---|
| Flight time | 1h 2m |
| Altitude | 11000 |
| Route | SEBSA Q128 NV Q787 SUNGU DCT DSTAE DCT PIPOG DCT TOLGE |
| Aircraft | KODI/L-SDFGR/C |
Departure
| Time | 2026-05-06 13:42 |
|---|---|
| Airport | Ryan's Creek Aerodrome (NZRC) |
Arrival
| Time | 2026-05-06 14:45 |
|---|---|
| Airport | Queenstown Airport (NZQN) |
| Time | Latitude | Longitude | Altitude | Speed | Heading |
|---|---|---|---|---|---|
| 2026-05-06 13:12 | -46.89791 | 168.10721 | 279 ft | 0 kts | 243° |
| 2026-05-06 13:38 | -46.89792 | 168.10717 | 282 ft | 2 kts | 243° |
| 2026-05-06 13:38 | -46.89799 | 168.10670 | 280 ft | 8 kts | 271° |
| 2026-05-06 13:39 | -46.89818 | 168.10581 | 285 ft | 9 kts | 244° |
| 2026-05-06 13:39 | -46.89842 | 168.10513 | 295 ft | 8 kts | 247° |
| 2026-05-06 13:39 | -46.89876 | 168.10408 | 300 ft | 16 kts | 244° |
| 2026-05-06 13:39 | -46.89927 | 168.10257 | 300 ft | 16 kts | 244° |
| 2026-05-06 13:40 | -46.89969 | 168.10137 | 304 ft | 11 kts | 244° |
| 2026-05-06 13:40 | -46.89997 | 168.10052 | 304 ft | 8 kts | 245° |
| 2026-05-06 13:40 | -46.90024 | 168.09974 | 304 ft | 10 kts | 243° |
| 2026-05-06 13:40 | -46.90062 | 168.09863 | 305 ft | 14 kts | 246° |
| 2026-05-06 13:41 | -46.90084 | 168.09760 | 303 ft | 6 kts | 232° |
| 2026-05-06 13:41 | -46.90097 | 168.09765 | 305 ft | 1 kts | 65° |
| 2026-05-06 13:41 | -46.90096 | 168.09769 | 305 ft | 0 kts | 61° |
| 2026-05-06 13:41 | -46.90093 | 168.09776 | 305 ft | 10 kts | 61° |
| 2026-05-06 13:42 | -46.90028 | 168.09961 | 304 ft | 50 kts | 64° |
| 2026-05-06 13:42 | -46.89791 | 168.10638 | 324 ft | 96 kts | 64° |
| 2026-05-06 13:42 | -46.89452 | 168.11588 | 544 ft | 111 kts | 64° |
| 2026-05-06 13:42 | -46.89141 | 168.12651 | 848 ft | 115 kts | 73° |
| 2026-05-06 13:43 | -46.88942 | 168.13826 | 1114 ft | 125 kts | 81° |
| 2026-05-06 13:43 | -46.88691 | 168.15113 | 1255 ft | 136 kts | 70° |
| 2026-05-06 13:43 | -46.88114 | 168.16230 | 1401 ft | 139 kts | 49° |
| 2026-05-06 13:43 | -46.87602 | 168.17403 | 1709 ft | 137 kts | 64° |
| 2026-05-06 13:44 | -46.87184 | 168.18651 | 1974 ft | 137 kts | 64° |
| 2026-05-06 13:44 | -46.86762 | 168.19896 | 2240 ft | 136 kts | 63° |
| 2026-05-06 13:44 | -46.86328 | 168.21129 | 2520 ft | 137 kts | 62° |
| 2026-05-06 13:44 | -46.85891 | 168.22362 | 2793 ft | 137 kts | 62° |
| 2026-05-06 13:45 | -46.85453 | 168.23596 | 3074 ft | 137 kts | 63° |
| 2026-05-06 13:45 | -46.84435 | 168.25928 | 3577 ft | 137 kts | 39° |
| 2026-05-06 13:45 | -46.83591 | 168.26557 | 3823 ft | 136 kts | 18° |
| 2026-05-06 13:46 | -46.82686 | 168.26963 | 4095 ft | 136 kts | 18° |
| 2026-05-06 13:46 | -46.81784 | 168.27378 | 4377 ft | 136 kts | 18° |
| 2026-05-06 13:46 | -46.80883 | 168.27797 | 4656 ft | 136 kts | 18° |
| 2026-05-06 13:46 | -46.79977 | 168.28221 | 4936 ft | 137 kts | 15° |
| 2026-05-06 13:47 | -46.79066 | 168.28621 | 5233 ft | 137 kts | 15° |
| 2026-05-06 13:47 | -46.78158 | 168.29026 | 5523 ft | 136 kts | 9° |
| 2026-05-06 13:47 | -46.77247 | 168.29370 | 5825 ft | 135 kts | 9° |
| 2026-05-06 13:47 | -46.76349 | 168.29804 | 6129 ft | 136 kts | 14° |
| 2026-05-06 13:48 | -46.75460 | 168.30254 | 6426 ft | 135 kts | 13° |
| 2026-05-06 13:48 | -46.74572 | 168.30683 | 6713 ft | 134 kts | 12° |
| 2026-05-06 13:48 | -46.73692 | 168.31102 | 7000 ft | 132 kts | 11° |
| 2026-05-06 13:48 | -46.72819 | 168.31514 | 7286 ft | 132 kts | 11° |
| 2026-05-06 13:49 | -46.71951 | 168.31923 | 7581 ft | 130 kts | 11° |
| 2026-05-06 13:49 | -46.71091 | 168.32329 | 7874 ft | 129 kts | 10° |
| 2026-05-06 13:49 | -46.70239 | 168.32730 | 8174 ft | 128 kts | 10° |
| 2026-05-06 13:49 | -46.69392 | 168.33128 | 8473 ft | 127 kts | 9° |
| 2026-05-06 13:50 | -46.68553 | 168.33523 | 8778 ft | 126 kts | 9° |
| 2026-05-06 13:50 | -46.67720 | 168.33915 | 9088 ft | 125 kts | 9° |
| 2026-05-06 13:50 | -46.66894 | 168.34304 | 9399 ft | 124 kts | 8° |
| 2026-05-06 13:50 | -46.66074 | 168.34690 | 9711 ft | 123 kts | 8° |
| 2026-05-06 13:51 | -46.65261 | 168.35071 | 10002 ft | 122 kts | 8° |
| 2026-05-06 13:51 | -46.64455 | 168.35449 | 10290 ft | 121 kts | 7° |
| 2026-05-06 13:51 | -46.63656 | 168.35822 | 10576 ft | 120 kts | 7° |
| 2026-05-06 13:51 | -46.62862 | 168.36194 | 10871 ft | 119 kts | 7° |
| 2026-05-06 13:52 | -46.62048 | 168.36576 | 10994 ft | 131 kts | 8° |
| 2026-05-06 13:52 | -46.61130 | 168.36987 | 10989 ft | 142 kts | 3° |
| 2026-05-06 13:52 | -46.60148 | 168.37009 | 10991 ft | 142 kts | 347° |
| 2026-05-06 13:52 | -46.59168 | 168.36750 | 10995 ft | 145 kts | 346° |
| 2026-05-06 13:53 | -46.58168 | 168.36493 | 10989 ft | 147 kts | 346° |
| 2026-05-06 13:53 | -46.57155 | 168.36223 | 10992 ft | 151 kts | 346° |
| 2026-05-06 13:53 | -46.56109 | 168.35942 | 10991 ft | 155 kts | 346° |
| 2026-05-06 13:53 | -46.55063 | 168.35638 | 10989 ft | 156 kts | 341° |
| 2026-05-06 13:54 | -46.54004 | 168.35274 | 10990 ft | 157 kts | 343° |
| 2026-05-06 13:54 | -46.52928 | 168.34962 | 10993 ft | 158 kts | 344° |
| 2026-05-06 13:54 | -46.51853 | 168.34669 | 10998 ft | 157 kts | 344° |
| 2026-05-06 13:54 | -46.50781 | 168.34376 | 10988 ft | 156 kts | 344° |
| 2026-05-06 13:55 | -46.49712 | 168.34084 | 10989 ft | 156 kts | 344° |
| 2026-05-06 13:55 | -46.48646 | 168.33793 | 10992 ft | 156 kts | 344° |
| 2026-05-06 13:55 | -46.47580 | 168.33502 | 10990 ft | 156 kts | 344° |
| 2026-05-06 13:55 | -46.46516 | 168.33211 | 10989 ft | 155 kts | 344° |
| 2026-05-06 13:56 | -46.45452 | 168.32921 | 10988 ft | 155 kts | 344° |
| 2026-05-06 13:56 | -46.44391 | 168.32632 | 10988 ft | 155 kts | 344° |
| 2026-05-06 13:56 | -46.43329 | 168.32343 | 10991 ft | 155 kts | 344° |
| 2026-05-06 13:56 | -46.42266 | 168.32053 | 10990 ft | 155 kts | 344° |
| 2026-05-06 13:57 | -46.41191 | 168.31869 | 10994 ft | 158 kts | 354° |
| 2026-05-06 13:57 | -46.40083 | 168.32097 | 10993 ft | 163 kts | 5° |
| 2026-05-06 13:57 | -46.38979 | 168.32486 | 10991 ft | 163 kts | 5° |
| 2026-05-06 13:57 | -46.37874 | 168.32851 | 10993 ft | 163 kts | 4° |
| 2026-05-06 13:58 | -46.36769 | 168.33219 | 10989 ft | 163 kts | 5° |
| 2026-05-06 13:58 | -46.35664 | 168.33590 | 10987 ft | 163 kts | 5° |
| 2026-05-06 13:58 | -46.34559 | 168.33959 | 10992 ft | 163 kts | 5° |
| 2026-05-06 13:58 | -46.33454 | 168.34330 | 10993 ft | 163 kts | 5° |
| 2026-05-06 13:59 | -46.32348 | 168.34699 | 10991 ft | 163 kts | 5° |
| 2026-05-06 13:59 | -46.31239 | 168.35071 | 10991 ft | 163 kts | 5° |
| 2026-05-06 13:59 | -46.30133 | 168.35439 | 10989 ft | 164 kts | 5° |
| 2026-05-06 13:59 | -46.29023 | 168.35810 | 10993 ft | 163 kts | 5° |
| 2026-05-06 14:00 | -46.27915 | 168.36179 | 10991 ft | 163 kts | 5° |
| 2026-05-06 14:00 | -46.26807 | 168.36549 | 10992 ft | 164 kts | 5° |
| 2026-05-06 14:00 | -46.25698 | 168.36920 | 10993 ft | 164 kts | 5° |
| 2026-05-06 14:00 | -46.24589 | 168.37289 | 10990 ft | 164 kts | 5° |
| 2026-05-06 14:01 | -46.23478 | 168.37659 | 10993 ft | 164 kts | 5° |
| 2026-05-06 14:01 | -46.22370 | 168.38029 | 10999 ft | 163 kts | 5° |
| 2026-05-06 14:01 | -46.21264 | 168.38396 | 10997 ft | 163 kts | 5° |
| 2026-05-06 14:01 | -46.20153 | 168.38767 | 10999 ft | 164 kts | 5° |
| 2026-05-06 14:02 | -46.19043 | 168.39135 | 11006 ft | 164 kts | 5° |
| 2026-05-06 14:02 | -46.17931 | 168.39506 | 11001 ft | 164 kts | 5° |
| 2026-05-06 14:02 | -46.16818 | 168.39876 | 10998 ft | 164 kts | 5° |
| 2026-05-06 14:02 | -46.15706 | 168.40246 | 11000 ft | 164 kts | 5° |
| 2026-05-06 14:03 | -46.14592 | 168.40616 | 10997 ft | 164 kts | 5° |
| 2026-05-06 14:03 | -46.13481 | 168.40985 | 10998 ft | 164 kts | 6° |
| 2026-05-06 14:03 | -46.12368 | 168.41354 | 10999 ft | 164 kts | 6° |
| 2026-05-06 14:03 | -46.11258 | 168.41722 | 10998 ft | 164 kts | 5° |
| 2026-05-06 14:04 | -46.10434 | 168.41996 | 10998 ft | 163 kts | 5° |
| 2026-05-06 14:04 | -46.09856 | 168.42188 | 11005 ft | 163 kts | 5° |
| 2026-05-06 14:04 | -46.08751 | 168.42554 | 10999 ft | 163 kts | 5° |
| 2026-05-06 14:05 | -46.07650 | 168.42925 | 11003 ft | 163 kts | 6° |
| 2026-05-06 14:05 | -46.06551 | 168.43305 | 10998 ft | 162 kts | 6° |
| 2026-05-06 14:05 | -46.05468 | 168.43677 | 11000 ft | 162 kts | 5° |
| 2026-05-06 14:05 | -46.04372 | 168.44051 | 10996 ft | 162 kts | 6° |
| 2026-05-06 14:06 | -46.03274 | 168.44426 | 11000 ft | 162 kts | 6° |
| 2026-05-06 14:06 | -46.02179 | 168.44800 | 11007 ft | 161 kts | 5° |
| 2026-05-06 14:06 | -46.01084 | 168.45174 | 11009 ft | 162 kts | 5° |
| 2026-05-06 14:06 | -45.99992 | 168.45548 | 11006 ft | 161 kts | 6° |
| 2026-05-06 14:07 | -45.98903 | 168.45919 | 10997 ft | 160 kts | 5° |
| 2026-05-06 14:07 | -45.97818 | 168.46288 | 11001 ft | 160 kts | 5° |
| 2026-05-06 14:07 | -45.96738 | 168.46657 | 11004 ft | 160 kts | 5° |
| 2026-05-06 14:07 | -45.95660 | 168.47025 | 11004 ft | 159 kts | 5° |
| 2026-05-06 14:08 | -45.94582 | 168.47391 | 11004 ft | 159 kts | 5° |
| 2026-05-06 14:08 | -45.93501 | 168.47760 | 11007 ft | 160 kts | 5° |
| 2026-05-06 14:08 | -45.92416 | 168.48130 | 11005 ft | 160 kts | 5° |
| 2026-05-06 14:08 | -45.91336 | 168.48499 | 11007 ft | 160 kts | 5° |
| 2026-05-06 14:09 | -45.90255 | 168.48865 | 11010 ft | 160 kts | 5° |
| 2026-05-06 14:09 | -45.89185 | 168.49229 | 11005 ft | 160 kts | 5° |
| 2026-05-06 14:09 | -45.88086 | 168.49603 | 11006 ft | 160 kts | 5° |
| 2026-05-06 14:09 | -45.87001 | 168.49973 | 11000 ft | 160 kts | 5° |
| 2026-05-06 14:10 | -45.85936 | 168.50334 | 11008 ft | 159 kts | 5° |
| 2026-05-06 14:10 | -45.84859 | 168.50699 | 11006 ft | 159 kts | 5° |
| 2026-05-06 14:10 | -45.83769 | 168.51069 | 11006 ft | 159 kts | 5° |
| 2026-05-06 14:10 | -45.82694 | 168.51434 | 11004 ft | 159 kts | 5° |
| 2026-05-06 14:11 | -45.81634 | 168.51793 | 11008 ft | 158 kts | 5° |
| 2026-05-06 14:11 | -45.80562 | 168.52156 | 11009 ft | 158 kts | 5° |
| 2026-05-06 14:11 | -45.79490 | 168.52519 | 11011 ft | 158 kts | 5° |
| 2026-05-06 14:11 | -45.78422 | 168.52881 | 11010 ft | 158 kts | 5° |
| 2026-05-06 14:12 | -45.77355 | 168.53243 | 11010 ft | 158 kts | 5° |
| 2026-05-06 14:12 | -45.76287 | 168.53603 | 11010 ft | 158 kts | 5° |
| 2026-05-06 14:12 | -45.75223 | 168.53963 | 11010 ft | 157 kts | 5° |
| 2026-05-06 14:12 | -45.74163 | 168.54321 | 11009 ft | 156 kts | 5° |
| 2026-05-06 14:13 | -45.73103 | 168.54678 | 11010 ft | 157 kts | 5° |
| 2026-05-06 14:13 | -45.72040 | 168.55039 | 11006 ft | 157 kts | 5° |
| 2026-05-06 14:13 | -45.70976 | 168.55398 | 11007 ft | 157 kts | 5° |
| 2026-05-06 14:13 | -45.69912 | 168.55757 | 11012 ft | 157 kts | 5° |
| 2026-05-06 14:14 | -45.68845 | 168.56117 | 11008 ft | 158 kts | 5° |
| 2026-05-06 14:14 | -45.67776 | 168.56480 | 10998 ft | 158 kts | 5° |
| 2026-05-06 14:14 | -45.66713 | 168.56839 | 11008 ft | 157 kts | 5° |
| 2026-05-06 14:14 | -45.65653 | 168.57194 | 11002 ft | 155 kts | 5° |
| 2026-05-06 14:15 | -45.64596 | 168.57547 | 10995 ft | 156 kts | 5° |
| 2026-05-06 14:15 | -45.63553 | 168.57899 | 11000 ft | 151 kts | 5° |
| 2026-05-06 14:15 | -45.62523 | 168.58242 | 11012 ft | 154 kts | 5° |
| 2026-05-06 14:15 | -45.61467 | 168.58599 | 11013 ft | 157 kts | 5° |
| 2026-05-06 14:16 | -45.60405 | 168.58955 | 11000 ft | 156 kts | 5° |
| 2026-05-06 14:16 | -45.59361 | 168.59310 | 11006 ft | 153 kts | 5° |
| 2026-05-06 14:16 | -45.58334 | 168.59654 | 11011 ft | 152 kts | 5° |
| 2026-05-06 14:16 | -45.57310 | 168.59997 | 11006 ft | 151 kts | 5° |
| 2026-05-06 14:17 | -45.56283 | 168.60340 | 11019 ft | 153 kts | 5° |
| 2026-05-06 14:17 | -45.55231 | 168.60694 | 11015 ft | 156 kts | 5° |
| 2026-05-06 14:17 | -45.54183 | 168.61051 | 11008 ft | 152 kts | 5° |
| 2026-05-06 14:17 | -45.53153 | 168.61394 | 11014 ft | 152 kts | 5° |
| 2026-05-06 14:18 | -45.52111 | 168.61741 | 11021 ft | 156 kts | 5° |
| 2026-05-06 14:18 | -45.51054 | 168.62099 | 11008 ft | 155 kts | 5° |
| 2026-05-06 14:18 | -45.50016 | 168.62448 | 11012 ft | 152 kts | 5° |
| 2026-05-06 14:18 | -45.48994 | 168.62786 | 11014 ft | 153 kts | 5° |
| 2026-05-06 14:19 | -45.47939 | 168.63139 | 11010 ft | 155 kts | 5° |
| 2026-05-06 14:19 | -45.46897 | 168.63491 | 11004 ft | 156 kts | 5° |
| 2026-05-06 14:19 | -45.45844 | 168.63851 | 11005 ft | 156 kts | 7° |
| 2026-05-06 14:19 | -45.44820 | 168.64362 | 11007 ft | 155 kts | 11° |
| 2026-05-06 14:20 | -45.43808 | 168.64872 | 11004 ft | 153 kts | 9° |
| 2026-05-06 14:20 | -45.42835 | 168.65357 | 11017 ft | 153 kts | 9° |
| 2026-05-06 14:21 | -45.41814 | 168.65868 | 11006 ft | 156 kts | 10° |
| 2026-05-06 14:21 | -45.40799 | 168.66385 | 11007 ft | 155 kts | 10° |
| 2026-05-06 14:21 | -45.39786 | 168.66896 | 11006 ft | 154 kts | 10° |
| 2026-05-06 14:21 | -45.38774 | 168.67404 | 11011 ft | 154 kts | 10° |
| 2026-05-06 14:22 | -45.37765 | 168.67911 | 11014 ft | 153 kts | 10° |
| 2026-05-06 14:22 | -45.36747 | 168.68074 | 11013 ft | 145 kts | 352° |
| 2026-05-06 14:22 | -45.35735 | 168.68042 | 11014 ft | 146 kts | 355° |
| 2026-05-06 14:22 | -45.34719 | 168.68087 | 11016 ft | 146 kts | 356° |
| 2026-05-06 14:23 | -45.33711 | 168.68157 | 11020 ft | 145 kts | 356° |
| 2026-05-06 14:23 | -45.32697 | 168.68233 | 11024 ft | 147 kts | 357° |
| 2026-05-06 14:23 | -45.31679 | 168.68311 | 11022 ft | 145 kts | 356° |
| 2026-05-06 14:23 | -45.30674 | 168.68386 | 11027 ft | 144 kts | 356° |
| 2026-05-06 14:24 | -45.29665 | 168.68462 | 11033 ft | 147 kts | 357° |
| 2026-05-06 14:24 | -45.28642 | 168.68542 | 11032 ft | 147 kts | 357° |
| 2026-05-06 14:24 | -45.27620 | 168.68621 | 11029 ft | 148 kts | 357° |
| 2026-05-06 14:24 | -45.26597 | 168.68701 | 11033 ft | 147 kts | 357° |
| 2026-05-06 14:25 | -45.25571 | 168.68773 | 11037 ft | 149 kts | 357° |
| 2026-05-06 14:25 | -45.24527 | 168.68852 | 11006 ft | 153 kts | 358° |
| 2026-05-06 14:25 | -45.23477 | 168.68938 | 11007 ft | 146 kts | 357° |
| 2026-05-06 14:25 | -45.22472 | 168.69008 | 11002 ft | 144 kts | 357° |
| 2026-05-06 14:26 | -45.21475 | 168.69083 | 11005 ft | 142 kts | 357° |
| 2026-05-06 14:26 | -45.20489 | 168.69154 | 11017 ft | 145 kts | 356° |
| 2026-05-06 14:26 | -45.19461 | 168.69234 | 11004 ft | 149 kts | 358° |
| 2026-05-06 14:26 | -45.18433 | 168.69318 | 11002 ft | 147 kts | 357° |
| 2026-05-06 14:27 | -45.17420 | 168.69391 | 11001 ft | 145 kts | 359° |
| 2026-05-06 14:27 | -45.16756 | 168.69442 | 11003 ft | 142 kts | 358° |
| 2026-05-06 14:27 | -45.15476 | 168.69610 | 11014 ft | 140 kts | 7° |
| 2026-05-06 14:27 | -45.14862 | 168.69889 | 11005 ft | 139 kts | 9° |
| 2026-05-06 14:28 | -45.13931 | 168.70295 | 11017 ft | 141 kts | 8° |
| 2026-05-06 14:28 | -45.12970 | 168.70718 | 10999 ft | 148 kts | 9° |
| 2026-05-06 14:28 | -45.11986 | 168.71165 | 10999 ft | 149 kts | 9° |
| 2026-05-06 14:28 | -45.10998 | 168.71611 | 11005 ft | 149 kts | 9° |
| 2026-05-06 14:29 | -45.10009 | 168.72054 | 11007 ft | 149 kts | 9° |
| 2026-05-06 14:29 | -45.09021 | 168.72496 | 11004 ft | 149 kts | 9° |
| 2026-05-06 14:29 | -45.08032 | 168.72938 | 11011 ft | 149 kts | 9° |
| 2026-05-06 14:29 | -45.07046 | 168.73378 | 11007 ft | 149 kts | 9° |
| 2026-05-06 14:30 | -45.06059 | 168.73819 | 11009 ft | 148 kts | 9° |
| 2026-05-06 14:30 | -45.05075 | 168.74256 | 11007 ft | 148 kts | 9° |
| 2026-05-06 14:30 | -45.04091 | 168.74695 | 11008 ft | 148 kts | 9° |
| 2026-05-06 14:30 | -45.03104 | 168.75137 | 11005 ft | 149 kts | 9° |
| 2026-05-06 14:31 | -45.02120 | 168.75575 | 11005 ft | 148 kts | 9° |
| 2026-05-06 14:31 | -45.01135 | 168.76014 | 11006 ft | 148 kts | 9° |
| 2026-05-06 14:31 | -45.00152 | 168.76453 | 11005 ft | 148 kts | 9° |
| 2026-05-06 14:31 | -44.99173 | 168.76889 | 11003 ft | 147 kts | 9° |
| 2026-05-06 14:32 | -44.98189 | 168.77326 | 11010 ft | 149 kts | 9° |
| 2026-05-06 14:32 | -44.97200 | 168.77767 | 11004 ft | 149 kts | 9° |
| 2026-05-06 14:32 | -44.96211 | 168.78207 | 10972 ft | 150 kts | 9° |
| 2026-05-06 14:32 | -44.95292 | 168.78622 | 10793 ft | 152 kts | 9° |
| 2026-05-06 14:33 | -44.94291 | 168.79075 | 10594 ft | 149 kts | 9° |
| 2026-05-06 14:33 | -44.93332 | 168.79627 | 10413 ft | 151 kts | 18° |
| 2026-05-06 14:33 | -44.92454 | 168.80493 | 10203 ft | 157 kts | 29° |
| 2026-05-06 14:33 | -44.91698 | 168.81657 | 10008 ft | 167 kts | 42° |
| 2026-05-06 14:34 | -44.91157 | 168.83084 | 10008 ft | 166 kts | 53° |
| 2026-05-06 14:34 | -44.90854 | 168.84677 | 10007 ft | 173 kts | 66° |
| 2026-05-06 14:34 | -44.90823 | 168.86440 | 10007 ft | 186 kts | 79° |
| 2026-05-06 14:34 | -44.90885 | 168.88306 | 9855 ft | 196 kts | 79° |
| 2026-05-06 14:35 | -44.90957 | 168.90275 | 9589 ft | 204 kts | 81° |
| 2026-05-06 14:35 | -44.91040 | 168.92266 | 9328 ft | 204 kts | 82° |
| 2026-05-06 14:35 | -44.91107 | 168.94278 | 9061 ft | 203 kts | 82° |
| 2026-05-06 14:35 | -44.91159 | 168.96252 | 8817 ft | 200 kts | 80° |
| 2026-05-06 14:36 | -44.91238 | 168.98203 | 8572 ft | 202 kts | 88° |
| 2026-05-06 14:36 | -44.91594 | 169.00171 | 8311 ft | 211 kts | 101° |
| 2026-05-06 14:36 | -44.92245 | 169.02065 | 8047 ft | 218 kts | 114° |
| 2026-05-06 14:36 | -44.93185 | 169.03762 | 7777 ft | 223 kts | 129° |
| 2026-05-06 14:37 | -44.94373 | 169.05143 | 7505 ft | 219 kts | 144° |
| 2026-05-06 14:37 | -44.95724 | 169.06148 | 7198 ft | 220 kts | 158° |
| 2026-05-06 14:37 | -44.97179 | 169.06731 | 6888 ft | 217 kts | 172° |
| 2026-05-06 14:37 | -44.98665 | 169.06882 | 6585 ft | 211 kts | 186° |
| 2026-05-06 14:38 | -45.00071 | 169.06482 | 6292 ft | 204 kts | 204° |
| 2026-05-06 14:38 | -45.01319 | 169.05589 | 5981 ft | 198 kts | 220° |
| 2026-05-06 14:38 | -45.02312 | 169.04351 | 5704 ft | 185 kts | 235° |
| 2026-05-06 14:38 | -45.03029 | 169.02880 | 5451 ft | 181 kts | 248° |
| 2026-05-06 14:39 | -45.03473 | 169.01244 | 5188 ft | 173 kts | 261° |
| 2026-05-06 14:39 | -45.03643 | 168.99572 | 4977 ft | 173 kts | 272° |
| 2026-05-06 14:39 | -45.03573 | 168.97863 | 4718 ft | 175 kts | 282° |
| 2026-05-06 14:39 | -45.03272 | 168.96207 | 4448 ft | 173 kts | 293° |
| 2026-05-06 14:40 | -45.02765 | 168.94685 | 4210 ft | 167 kts | 305° |
| 2026-05-06 14:40 | -45.02171 | 168.93371 | 3963 ft | 152 kts | 306° |
| 2026-05-06 14:40 | -45.01630 | 168.92131 | 3735 ft | 145 kts | 304° |
| 2026-05-06 14:40 | -45.01115 | 168.90945 | 3532 ft | 140 kts | 303° |
| 2026-05-06 14:41 | -45.00609 | 168.89789 | 3327 ft | 136 kts | 302° |
| 2026-05-06 14:41 | -45.00166 | 168.88647 | 3146 ft | 128 kts | 293° |
| 2026-05-06 14:41 | -44.99930 | 168.87500 | 2963 ft | 116 kts | 281° |
| 2026-05-06 14:41 | -44.99863 | 168.86461 | 2814 ft | 111 kts | 271° |
| 2026-05-06 14:42 | -44.99929 | 168.85435 | 2663 ft | 109 kts | 261° |
| 2026-05-06 14:42 | -45.00082 | 168.84455 | 2619 ft | 99 kts | 257° |
| 2026-05-06 14:42 | -45.00280 | 168.83478 | 2391 ft | 97 kts | 253° |
| 2026-05-06 14:42 | -45.00446 | 168.82643 | 2278 ft | 89 kts | 252° |
| 2026-05-06 14:43 | -45.00633 | 168.81767 | 2211 ft | 95 kts | 253° |
| 2026-05-06 14:43 | -45.00826 | 168.80867 | 2107 ft | 95 kts | 255° |
| 2026-05-06 14:43 | -45.00989 | 168.79994 | 1938 ft | 89 kts | 257° |
| 2026-05-06 14:43 | -45.01131 | 168.79155 | 1804 ft | 87 kts | 259° |
| 2026-05-06 14:44 | -45.01255 | 168.78315 | 1629 ft | 87 kts | 262° |
| 2026-05-06 14:44 | -45.01384 | 168.77480 | 1451 ft | 87 kts | 260° |
| 2026-05-06 14:44 | -45.01526 | 168.76640 | 1332 ft | 92 kts | 261° |
| 2026-05-06 14:45 | -45.01768 | 168.75040 | 1170 ft | 65 kts | 257° |
| 2026-05-06 14:45 | -45.01858 | 168.74473 | 1168 ft | 56 kts | 257° |
| 2026-05-06 14:45 | -45.01936 | 168.74070 | 1170 ft | 13 kts | 218° |
| 2026-05-06 14:45 | -45.02018 | 168.74011 | 1168 ft | 17 kts | 202° |
| 2026-05-06 14:46 | -45.02098 | 168.74094 | 1170 ft | 19 kts | 115° |
| 2026-05-06 14:46 | -45.02136 | 168.74165 | 1170 ft | 10 kts | 150° |
| 2026-05-06 14:46 | -45.02235 | 168.74208 | 1170 ft | 17 kts | 158° |
| 2026-05-06 14:46 | -45.02284 | 168.74236 | 1169 ft | 5 kts | 169° |
| 2026-05-06 14:47 | -45.02328 | 168.74225 | 1169 ft | 9 kts | 169° |
| 2026-05-06 14:47 | -45.02352 | 168.74141 | 1170 ft | 12 kts | 257° |
| 2026-05-06 14:47 | -45.02373 | 168.74016 | 1168 ft | 14 kts | 258° |
| 2026-05-06 14:47 | -45.02432 | 168.73911 | 1168 ft | 14 kts | 222° |
| 2026-05-06 14:48 | -45.02479 | 168.73858 | 1169 ft | 2 kts | 149° |
| 2026-05-06 14:48 | -45.02490 | 168.73867 | 1170 ft | 2 kts | 147° |
| 2026-05-06 14:48 | -45.02492 | 168.73869 | 1170 ft | 0 kts | 147° |